createdAt,value
2022-08-07T00:04:41.617Z,73.81
2022-08-07T00:10:04.676Z,74.28
2022-08-07T00:15:09.199Z,75.46
2022-08-07T00:20:15.624Z,75.76
2022-08-07T00:25:37.578Z,75.84
2022-08-07T00:30:42.976Z,75.93
2022-08-07T00:35:49.480Z,77.98
2022-08-07T00:40:51.429Z,76.92
2022-08-07T00:45:53.350Z,77.17
2022-08-07T00:50:55.612Z,78.42
2022-08-07T00:56:03.207Z,79.53
2022-08-07T01:01:05.545Z,78.96
2022-08-07T01:06:08.104Z,78.94
2022-08-07T01:12:09.744Z,79.55
2022-08-07T01:16:34.525Z,79.41
2022-08-07T01:21:37.251Z,79.88
2022-08-07T01:26:40.343Z,78.50
2022-08-07T01:31:48.693Z,78.49
2022-08-07T01:36:52.458Z,77.67
2022-08-07T01:42:36.891Z,77.34
2022-08-07T01:48:29.242Z,77.37
2022-08-07T01:52:56.248Z,77.97
2022-08-07T01:58:06.528Z,78.99
2022-08-07T02:03:42.680Z,79.64
2022-08-07T02:08:49.977Z,80.39
2022-08-07T02:14:02.317Z,81.67
2022-08-07T02:20:05.245Z,82.99
2022-08-07T02:24:30.369Z,84.16
2022-08-07T02:29:34.318Z,85.52
2022-08-07T02:34:51.066Z,85.02
2022-08-07T02:40:12.059Z,86.59
2022-08-07T02:45:58.851Z,87.23
2022-08-07T02:50:44.637Z,87.75
2022-08-07T02:56:02.286Z,89.55
2022-08-07T03:01:16.050Z,88.07
2022-08-07T03:06:26.086Z,88.83
2022-08-07T03:11:38.570Z,89.35
2022-08-07T03:16:40.899Z,91.02
2022-08-07T03:21:50.368Z,92.00
2022-08-07T03:26:58.756Z,92.76
2022-08-07T03:32:04.336Z,93.69
2022-08-07T03:37:12.219Z,94.49
2022-08-07T03:42:15.966Z,95.52
2022-08-07T03:47:18.533Z,96.42
2022-08-07T03:52:27.859Z,97.75
2022-08-07T03:58:35.153Z,98.48
2022-08-07T04:02:56.689Z,97.12
2022-08-07T04:07:58.801Z,95.45
2022-08-07T04:13:03.327Z,95.79
2022-08-07T04:18:57.083Z,95.56
2022-08-07T04:23:43.522Z,96.66
2022-08-07T04:28:50.321Z,96.84
2022-08-07T04:33:56.471Z,97.68
2022-08-07T04:38:58.584Z,97.85
2022-08-07T04:44:12.241Z,98.62
2022-08-07T04:49:42.818Z,98.68
2022-08-07T04:58:15.999Z,98.58
2022-08-07T05:01:20.256Z,98.16
2022-08-07T05:06:43.347Z,98.38
2022-08-07T05:11:58.553Z,99.37
2022-08-07T05:17:05.952Z,98.80
2022-08-07T05:22:26.811Z,98.63
2022-08-07T05:28:02.793Z,96.59
2022-08-07T05:32:53.108Z,95.17
2022-08-07T05:38:09.001Z,94.66
2022-08-07T05:43:11.682Z,93.14
2022-08-07T05:48:15.374Z,91.01
2022-08-07T05:54:13.135Z,88.98
2022-08-07T05:58:40.989Z,88.61
2022-08-07T06:03:58.915Z,86.91
2022-08-07T06:09:04.717Z,85.49
2022-08-07T06:14:12.338Z,85.55
2022-08-07T06:19:18.244Z,84.53
2022-08-07T06:24:56.886Z,83.74
2022-08-07T06:30:00.960Z,83.02
2022-08-07T06:35:02.773Z,80.33
2022-08-07T06:40:21.463Z,80.31
2022-08-07T06:45:24.253Z,78.39
2022-08-07T06:50:26.864Z,75.48
2022-08-07T06:56:00.296Z,71.07
2022-08-07T07:00:58.137Z,71.25
2022-08-07T07:06:04.323Z,69.48
2022-08-07T07:11:14.043Z,66.72
2022-08-07T07:16:45.102Z,65.42
2022-08-07T07:22:04.949Z,60.75
2022-08-07T07:27:16.960Z,59.47
2022-08-07T07:32:21.220Z,55.81
2022-08-07T07:37:49.793Z,54.22
2022-08-07T07:42:53.748Z,54.65
2022-08-07T07:47:57.157Z,52.01
2022-08-07T07:53:00.861Z,50.97
2022-08-07T07:58:03.398Z,47.33
2022-08-07T08:03:16.756Z,46.78
2022-08-07T08:08:39.229Z,45.99
2022-08-07T08:13:53.371Z,44.32
2022-08-07T08:19:00.546Z,41.38
2022-08-07T09:03:02.185Z,30.99
2022-08-07T09:08:49.890Z,30.04
2022-08-07T09:14:16.330Z,28.19
2022-08-07T09:19:52.619Z,26.32
2022-08-07T09:25:17.370Z,25.13
2022-08-07T09:30:32.357Z,24.45
2022-08-07T09:59:14.526Z,21.65
2022-08-07T10:05:15.301Z,20.63
2022-08-07T10:28:33.378Z,19.63
2022-08-07T11:14:45.087Z,17.52
2022-08-07T11:26:13.071Z,18.93
2022-08-07T11:31:24.840Z,18.71
2022-08-07T11:37:11.718Z,19.55
2022-08-07T11:43:18.539Z,20.04
2022-08-07T11:56:24.998Z,18.07
2022-08-07T12:12:11.599Z,17.55
2022-08-07T12:39:57.358Z,15.82
2022-08-07T13:13:48.234Z,14.90
2022-08-07T13:19:22.045Z,15.53
2022-08-07T13:31:46.228Z,17.82
2022-08-07T13:53:08.188Z,20.97
2022-08-07T14:10:12.251Z,23.59
2022-08-07T14:15:18.842Z,24.50
2022-08-07T14:26:50.328Z,23.88
2022-08-07T14:31:57.707Z,25.09
2022-08-07T15:04:55.970Z,26.52
2022-08-07T15:10:58.686Z,25.51
2022-08-07T15:16:20.128Z,27.08
2022-08-07T15:33:43.001Z,26.51
2022-08-07T15:45:02.053Z,27.59
2022-08-07T16:22:04.127Z,28.80
2022-08-07T16:32:39.648Z,33.61
2022-08-07T16:38:14.818Z,31.23
2022-08-07T17:21:22.685Z,30.84
2022-08-07T17:44:41.495Z,31.19
2022-08-07T17:50:01.091Z,30.15
2022-08-07T18:01:51.742Z,31.45
2022-08-07T18:07:22.913Z,33.14
2022-08-07T18:13:01.417Z,33.08
2022-08-07T18:18:45.046Z,33.09
2022-08-07T18:24:33.275Z,33.14
2022-08-07T18:30:31.185Z,34.01
2022-08-07T18:36:14.905Z,36.05
2022-08-07T18:41:52.983Z,34.87
2022-08-07T18:47:20.843Z,34.35
2022-08-07T18:52:54.418Z,35.04
2022-08-07T19:04:57.455Z,36.84
2022-08-07T19:16:04.981Z,39.85
2022-08-07T19:21:55.985Z,40.92
2022-08-07T19:29:02.950Z,41.39
2022-08-07T19:32:44.073Z,42.23
2022-08-07T19:38:14.914Z,43.78
2022-08-07T19:44:21.590Z,44.98
2022-08-07T20:02:24.597Z,44.99
2022-08-07T20:13:55.001Z,46.19
2022-08-07T20:20:04.639Z,46.61
2022-08-07T20:55:00.795Z,48.72
2022-08-07T21:00:09.703Z,49.32
2022-08-07T21:22:59.208Z,49.47
2022-08-07T21:28:49.911Z,49.56
2022-08-07T22:09:07.623Z,52.55
2022-08-07T22:16:39.515Z,53.50
2022-08-07T22:21:11.486Z,52.44
2022-08-07T22:26:20.189Z,52.08
2022-08-07T22:32:24.832Z,53.24
2022-08-07T22:49:34.023Z,54.73
2022-08-07T22:55:22.593Z,54.82
2022-08-07T23:01:19.865Z,54.66
2022-08-07T23:06:51.644Z,55.38
2022-08-07T23:12:38.050Z,56.81
2022-08-07T23:18:03.526Z,57.14
2022-08-07T23:24:06.120Z,55.95
2022-08-07T23:29:44.054Z,57.31
2022-08-07T23:35:26.903Z,59.01
2022-08-07T23:41:10.363Z,58.48
2022-08-07T23:46:45.172Z,59.09
2022-08-07T23:53:08.846Z,60.12
2022-08-07T23:57:41.360Z,60.78
